createdAt,value
2023-03-16T11:55:42.198Z,45.00
2023-03-16T11:56:42.176Z,50.62
2023-03-16T11:57:42.167Z,56.25
2023-03-16T11:58:42.159Z,56.25
2023-03-16T11:59:46.328Z,56.25
2023-03-16T12:00:43.173Z,56.25
2023-03-16T12:01:50.565Z,56.25
2023-03-16T12:02:43.232Z,56.25
2023-03-16T12:03:42.189Z,56.25
2023-03-16T12:04:42.086Z,50.62
2023-03-16T12:05:43.389Z,50.62
2023-03-16T12:06:42.099Z,50.62
2023-03-16T12:07:42.054Z,45.00
2023-03-16T12:08:42.049Z,39.38
2023-03-16T12:09:42.035Z,50.62
2023-03-16T12:10:42.054Z,50.62
2023-03-16T12:11:42.091Z,50.62
2023-03-16T12:12:41.996Z,39.38
2023-03-16T12:13:41.980Z,33.75
2023-03-16T12:14:41.966Z,45.00
2023-03-16T12:15:41.964Z,33.75
2023-03-16T12:16:49.103Z,33.75
2023-03-16T12:17:42.962Z,33.75
2023-03-16T12:18:41.958Z,33.75
2023-03-16T12:19:41.920Z,28.12
2023-03-16T12:20:41.903Z,33.75
2023-03-16T12:21:41.900Z,28.12
2023-03-16T12:22:41.886Z,33.75
2023-03-16T12:23:41.884Z,33.75
2023-03-16T12:24:42.381Z,33.75
2023-03-16T12:25:41.869Z,33.75
2023-03-16T12:26:41.854Z,33.75
2023-03-16T12:27:41.822Z,33.75
2023-03-16T12:28:41.835Z,33.75
2023-03-16T12:29:41.825Z,33.75
2023-03-16T12:30:41.827Z,33.75
2023-03-16T12:31:41.836Z,39.38
2023-03-16T12:32:41.803Z,39.38
2023-03-16T12:33:41.771Z,39.38
2023-03-16T12:34:41.752Z,39.38
2023-03-16T12:35:41.807Z,33.75
2023-03-16T12:36:41.728Z,33.75
2023-03-16T12:37:41.750Z,33.75
2023-03-16T12:38:41.705Z,33.75
2023-03-16T12:39:41.700Z,33.75
2023-03-16T12:40:41.713Z,33.75
2023-03-16T12:41:41.670Z,33.75
2023-03-16T12:42:41.667Z,33.75
2023-03-16T12:43:41.752Z,33.75
2023-03-16T12:44:41.649Z,28.12
2023-03-16T12:45:41.657Z,28.12
2023-03-16T12:46:41.642Z,22.50
2023-03-16T12:47:41.631Z,28.12
2023-03-16T12:48:41.602Z,22.50
2023-03-16T12:49:41.599Z,28.12
2023-03-16T12:50:41.577Z,28.12
2023-03-16T12:51:41.555Z,28.12
2023-03-16T12:52:42.317Z,28.12
2023-03-16T12:53:41.575Z,28.12
2023-03-16T12:54:41.531Z,28.12
2023-03-16T12:55:41.538Z,28.12
2023-03-16T12:56:41.519Z,22.50
2023-03-16T12:57:41.502Z,22.50
2023-03-16T12:58:41.496Z,22.50
2023-03-16T12:59:41.483Z,22.50
2023-03-16T13:00:41.525Z,22.50
2023-03-16T13:01:41.464Z,22.50
2023-03-16T13:02:41.471Z,22.50
2023-03-16T13:03:41.453Z,22.50
2023-03-16T13:04:41.584Z,22.50
2023-03-16T13:05:41.417Z,22.50
2023-03-16T13:06:41.397Z,22.50
2023-03-16T13:07:41.387Z,22.50
2023-03-16T13:08:41.387Z,22.50
2023-03-16T13:09:41.378Z,22.50
2023-03-16T13:10:41.368Z,22.50
2023-03-16T13:11:41.341Z,22.50
2023-03-16T13:12:41.333Z,22.50
2023-03-16T13:13:41.324Z,22.50
2023-03-16T13:14:41.398Z,22.50
2023-03-16T13:15:41.342Z,22.50
2023-03-16T13:16:41.351Z,22.50
2023-03-16T13:17:41.329Z,22.50
2023-03-16T13:18:41.325Z,22.50
2023-03-16T13:19:41.272Z,22.50
2023-03-16T13:20:41.286Z,22.50
2023-03-16T13:21:41.351Z,22.50
2023-03-16T13:22:41.232Z,22.50
2023-03-16T13:23:41.217Z,22.50
2023-03-16T13:24:41.270Z,22.50
2023-03-16T13:25:41.194Z,22.50
2023-03-16T13:26:41.256Z,22.50
2023-03-16T13:27:41.171Z,22.50
2023-03-16T13:28:41.189Z,22.50
2023-03-16T13:29:41.147Z,22.50
2023-03-16T13:30:41.180Z,22.50
2023-03-16T13:31:41.210Z,22.50
2023-03-16T13:32:41.454Z,22.50
2023-03-16T13:33:41.171Z,22.50
2023-03-16T13:34:41.099Z,22.50
2023-03-16T13:35:41.156Z,22.50
2023-03-16T13:36:41.086Z,22.50
2023-03-16T13:37:41.082Z,22.50
2023-03-16T13:38:41.091Z,22.50
2023-03-16T13:39:41.087Z,28.12
2023-03-16T13:40:41.062Z,28.12
2023-03-16T13:41:43.269Z,28.12
2023-03-16T13:42:41.015Z,22.50
2023-03-16T13:43:41.004Z,22.50
2023-03-16T13:44:41.006Z,22.50
2023-03-16T13:45:41.040Z,22.50
2023-03-16T13:46:40.964Z,22.50
2023-03-16T13:47:40.960Z,22.50
2023-03-16T13:48:40.976Z,22.50
2023-03-16T13:49:40.926Z,22.50
2023-03-16T13:50:40.937Z,22.50
2023-03-16T13:51:40.929Z,28.12
2023-03-16T13:52:40.903Z,28.12
2023-03-16T13:53:40.932Z,28.12
2023-03-16T13:54:40.882Z,28.12
2023-03-16T13:55:40.876Z,28.12
2023-03-16T13:56:40.875Z,28.12
2023-03-16T13:57:40.853Z,22.50
2023-03-16T13:58:40.836Z,22.50
2023-03-16T13:59:40.822Z,22.50
2023-03-16T14:00:40.836Z,22.50
2023-03-16T14:01:40.839Z,28.12
2023-03-16T14:02:40.819Z,28.12
2023-03-16T14:03:40.813Z,28.12
2023-03-16T14:04:43.353Z,28.12
2023-03-16T14:05:40.759Z,28.12
2023-03-16T14:06:40.780Z,28.12
2023-03-16T14:07:40.733Z,28.12
2023-03-16T14:08:40.735Z,28.12
2023-03-16T14:09:40.743Z,22.50
2023-03-16T14:10:40.709Z,22.50
2023-03-16T14:11:40.706Z,28.12
2023-03-16T14:12:40.709Z,28.12
2023-03-16T14:13:40.676Z,28.12
2023-03-16T14:14:40.657Z,28.12
2023-03-16T14:15:40.765Z,22.50
2023-03-16T14:16:40.637Z,28.12
2023-03-16T14:17:40.630Z,16.88
2023-03-16T14:18:40.648Z,16.88
2023-03-16T14:19:40.608Z,11.25
2023-03-16T14:20:41.376Z,11.25
2023-03-16T14:21:40.610Z,11.25
2023-03-16T14:22:40.563Z,11.25
2023-03-16T14:23:40.577Z,11.25
2023-03-16T14:24:40.565Z,11.25
2023-03-16T14:25:40.583Z,11.25
2023-03-16T14:26:40.561Z,11.25
2023-03-16T14:27:40.517Z,11.25
2023-03-16T14:28:40.524Z,11.25
2023-03-16T14:29:40.503Z,11.25
2023-03-16T14:30:40.485Z,11.25
2023-03-16T14:31:40.494Z,11.25
2023-03-16T14:32:40.488Z,11.25
2023-03-16T14:33:40.456Z,11.25
2023-03-16T14:34:40.452Z,11.25
2023-03-16T14:35:40.479Z,11.25
2023-03-16T14:36:40.423Z,11.25
2023-03-16T14:37:40.434Z,11.25
2023-03-16T14:38:40.418Z,11.25
2023-03-16T14:39:40.411Z,11.25
2023-03-16T14:40:40.585Z,11.25
2023-03-16T14:41:40.383Z,11.25
2023-03-16T14:42:40.351Z,11.25
2023-03-16T14:43:40.357Z,11.25
2023-03-16T14:44:40.337Z,11.25
2023-03-16T14:45:40.332Z,11.25
2023-03-16T14:46:40.513Z,11.25
2023-03-16T14:47:40.305Z,16.88
2023-03-16T14:48:40.352Z,16.88
2023-03-16T14:49:43.148Z,16.88
2023-03-16T14:50:40.265Z,16.88
2023-03-16T14:51:40.275Z,16.88
2023-03-16T14:52:40.241Z,16.88
2023-03-16T14:53:40.229Z,16.88
2023-03-16T14:54:40.230Z,16.88
2023-03-16T14:55:40.214Z,16.88
2023-03-16T14:56:40.235Z,16.88
2023-03-16T14:57:40.215Z,16.88
2023-03-16T14:58:40.228Z,11.25
2023-03-16T14:59:40.191Z,11.25
2023-03-16T15:00:52.392Z,16.88
2023-03-16T15:01:41.194Z,16.88
2023-03-16T15:02:40.247Z,11.25
2023-03-16T15:03:40.143Z,11.25
2023-03-16T15:04:40.118Z,11.25
2023-03-16T15:05:40.159Z,11.25
2023-03-16T15:06:40.095Z,11.25
2023-03-16T15:07:40.082Z,11.25
2023-03-16T15:08:40.093Z,11.25
2023-03-16T15:09:40.108Z,11.25
2023-03-16T15:10:40.078Z,11.25
2023-03-16T15:11:40.036Z,11.25
2023-03-16T15:12:40.047Z,11.25
2023-03-16T15:13:40.066Z,11.25
2023-03-16T15:14:40.002Z,11.25
2023-03-16T15:15:40.029Z,11.25
2023-03-16T15:16:40.147Z,11.25
2023-03-16T15:17:39.989Z,11.25
2023-03-16T15:18:39.959Z,11.25
2023-03-16T15:19:39.980Z,11.25
2023-03-16T15:20:39.953Z,11.25
2023-03-16T15:21:39.945Z,11.25
2023-03-16T15:22:39.954Z,11.25
2023-03-16T15:23:39.904Z,11.25
2023-03-16T15:24:39.902Z,11.25
2023-03-16T15:25:39.894Z,11.25
2023-03-16T15:26:39.873Z,11.25
2023-03-16T15:27:39.879Z,11.25
2023-03-16T15:28:39.866Z,11.25
2023-03-16T15:29:39.885Z,11.25
2023-03-16T15:30:39.832Z,5.62
2023-03-16T15:31:39.906Z,5.62
2023-03-16T15:32:39.872Z,5.62
2023-03-16T15:33:39.812Z,5.62
2023-03-16T15:34:39.800Z,5.62
2023-03-16T15:35:39.826Z,5.62
2023-03-16T15:36:39.797Z,5.62
2023-03-16T15:37:39.749Z,5.62
2023-03-16T15:38:39.744Z,5.62
2023-03-16T15:39:39.736Z,5.62
2023-03-16T15:40:39.739Z,5.62
2023-03-16T15:41:47.523Z,5.62
2023-03-16T15:42:40.696Z,5.62
2023-03-16T15:43:39.695Z,5.62
2023-03-16T15:44:39.688Z,5.62
2023-03-16T15:45:39.693Z,5.62
2023-03-16T15:46:39.737Z,5.62
2023-03-16T15:47:39.642Z,5.62
2023-03-16T15:48:39.654Z,5.62
2023-03-16T15:49:47.100Z,5.62
2023-03-16T15:50:40.620Z,5.62
2023-03-16T15:51:39.603Z,5.62
2023-03-16T15:52:39.613Z,5.62
2023-03-16T15:53:39.592Z,5.62
2023-03-16T15:54:39.587Z,5.62
2023-03-16T15:55:39.556Z,5.62
2023-03-16T15:56:51.271Z,5.62
2023-03-16T15:57:40.817Z,5.62
2023-03-16T15:58:39.556Z,5.62
2023-03-16T15:59:39.534Z,5.62
2023-03-16T16:00:39.705Z,5.62
2023-03-16T16:01:39.507Z,5.62
2023-03-16T16:02:39.480Z,5.62
2023-03-16T16:03:39.473Z,5.62
2023-03-16T16:04:39.501Z,5.62
2023-03-16T16:05:39.444Z,5.62
2023-03-16T16:06:39.454Z,5.62
2023-03-16T16:07:39.448Z,5.62
2023-03-16T16:08:39.402Z,5.62
2023-03-16T16:09:39.465Z,5.62
2023-03-16T16:10:39.384Z,5.62
2023-03-16T16:11:39.379Z,5.62
2023-03-16T16:12:40.304Z,5.62
2023-03-16T16:13:44.810Z,5.62
2023-03-16T16:14:41.792Z,5.62
2023-03-16T16:15:40.344Z,5.62
2023-03-16T16:16:39.385Z,5.62
2023-03-16T16:17:53.484Z,5.62
2023-03-16T16:18:40.838Z,5.62
2023-03-16T16:19:42.346Z,5.62
2023-03-16T16:20:40.815Z,5.62
2023-03-16T16:21:39.831Z,5.62
2023-03-16T16:22:39.281Z,5.62
2023-03-16T16:23:39.353Z,5.62
2023-03-16T16:24:39.239Z,5.62
2023-03-16T16:25:39.266Z,5.62
2023-03-16T16:26:49.987Z,5.62
2023-03-16T16:27:40.205Z,5.62
2023-03-16T16:28:39.184Z,5.62
2023-03-16T16:29:39.819Z,5.62
2023-03-16T16:30:39.949Z,5.62
2023-03-16T16:31:39.220Z,5.62
2023-03-16T16:32:39.834Z,0.00
2023-03-16T16:33:39.248Z,0.00
2023-03-16T18:00:28.651Z,0.00
2023-03-16T18:01:27.453Z,0.00
2023-03-16T18:02:26.391Z,0.00
2023-03-16T18:03:26.887Z,0.00
2023-03-16T18:04:27.233Z,0.00
2023-03-16T18:05:26.731Z,0.00
2023-03-16T18:06:26.257Z,0.00
2023-03-16T18:07:26.725Z,0.00
2023-03-16T18:08:26.141Z,0.00
2023-03-16T18:09:25.988Z,0.00
2023-03-16T18:10:26.882Z,0.00
2023-03-16T18:11:26.220Z,0.00
2023-03-16T18:12:27.291Z,0.00
2023-03-16T18:13:27.012Z,0.00
2023-03-16T18:14:27.225Z,0.00
2023-03-16T18:15:25.891Z,0.00
2023-03-16T18:16:25.950Z,0.00
2023-03-16T18:17:25.909Z,0.00
2023-03-16T18:18:26.735Z,0.00
2023-03-16T18:19:25.942Z,0.00
2023-03-16T18:20:25.819Z,0.00
2023-03-16T18:21:26.068Z,0.00
2023-03-16T18:22:26.034Z,0.00
2023-03-16T18:23:25.889Z,0.00
2023-03-16T18:24:26.977Z,0.00
2023-03-16T18:25:25.793Z,0.00
2023-03-16T18:26:26.009Z,0.00
2023-03-16T18:27:25.792Z,0.00
2023-03-16T18:28:25.759Z,0.00
2023-03-16T18:29:25.819Z,0.00
2023-03-16T18:30:25.930Z,0.00
2023-03-16T18:31:25.898Z,0.00
2023-03-16T18:32:25.835Z,0.00
2023-03-16T18:33:25.707Z,0.00
2023-03-16T18:34:29.217Z,0.00
2023-03-16T18:35:25.967Z,0.00
2023-03-16T18:36:26.260Z,0.00
2023-03-16T18:37:26.222Z,0.00
2023-03-16T18:38:25.674Z,0.00
2023-03-16T18:39:26.727Z,0.00
2023-03-16T18:40:26.396Z,0.00
2023-03-16T18:41:26.237Z,0.00
2023-03-16T18:42:25.699Z,0.00
2023-03-16T18:43:27.370Z,0.00
2023-03-16T18:44:25.573Z,0.00
2023-03-16T18:45:26.050Z,0.00
2023-03-16T18:46:25.635Z,0.00
2023-03-16T18:47:25.552Z,0.00
2023-03-16T18:48:25.839Z,0.00
2023-03-16T18:49:25.513Z,0.00
2023-03-16T18:50:25.634Z,0.00
2023-03-16T18:51:25.631Z,0.00
2023-03-16T18:52:25.501Z,0.00
2023-03-16T18:53:25.663Z,0.00
2023-03-16T18:54:25.530Z,0.00
2023-03-16T18:55:25.528Z,0.00
2023-03-16T18:56:25.469Z,0.00
2023-03-16T18:57:25.459Z,0.00
2023-03-16T18:58:25.560Z,0.00
2023-03-16T18:59:25.466Z,0.00
2023-03-16T19:00:25.427Z,0.00
2023-03-16T19:01:25.475Z,0.00
2023-03-16T19:02:25.399Z,0.00
2023-03-16T19:03:26.213Z,0.00
2023-03-16T19:04:26.213Z,0.00
2023-03-16T19:05:25.588Z,0.00
2023-03-16T19:06:25.574Z,0.00
2023-03-16T19:07:25.411Z,0.00
2023-03-16T19:08:25.327Z,0.00
2023-03-16T19:09:25.297Z,0.00
2023-03-16T19:10:25.333Z,0.00
2023-03-16T19:11:25.340Z,0.00
2023-03-16T19:12:25.425Z,0.00
2023-03-16T19:13:25.269Z,0.00
2023-03-16T19:14:25.238Z,0.00
2023-03-16T19:15:25.223Z,0.00
2023-03-16T19:16:25.244Z,0.00
2023-03-16T19:17:25.213Z,0.00
2023-03-16T19:18:25.195Z,0.00
2023-03-16T19:19:25.202Z,0.00
2023-03-16T19:20:25.716Z,0.00
2023-03-16T19:21:25.176Z,0.00
2023-03-16T19:22:25.139Z,0.00
2023-03-16T19:23:25.296Z,0.00
2023-03-16T19:24:25.121Z,0.00
2023-03-16T19:25:25.146Z,0.00
2023-03-16T19:26:25.098Z,0.00
2023-03-16T19:27:25.835Z,0.00
2023-03-16T19:28:25.170Z,0.00
2023-03-16T19:29:25.075Z,0.00
2023-03-16T19:30:26.707Z,0.00
2023-03-16T19:31:25.177Z,0.00
2023-03-16T19:32:25.096Z,0.00
2023-03-16T19:33:25.100Z,0.00
2023-03-16T19:34:25.009Z,0.00
2023-03-16T19:35:36.246Z,0.00
2023-03-16T19:36:26.098Z,0.00
2023-03-16T19:37:24.996Z,0.00
2023-03-16T19:38:25.020Z,0.00
2023-03-16T19:39:24.998Z,0.00
2023-03-16T19:40:24.940Z,0.00
2023-03-16T19:41:24.939Z,0.00
2023-03-16T19:42:24.933Z,0.00
2023-03-16T19:43:24.931Z,0.00
2023-03-16T19:44:24.954Z,0.00
2023-03-16T19:45:24.935Z,0.00
2023-03-16T19:46:24.951Z,0.00
2023-03-16T19:47:24.914Z,0.00
2023-03-16T19:48:24.867Z,0.00
2023-03-16T19:49:24.851Z,0.00
2023-03-16T19:50:24.869Z,0.00
2023-03-16T19:51:24.862Z,0.00
2023-03-16T19:52:24.847Z,0.00
2023-03-16T19:53:24.823Z,0.00
2023-03-16T19:54:24.817Z,0.00
2023-03-16T19:55:24.793Z,0.00
2023-03-16T19:56:26.858Z,0.00
2023-03-16T19:57:24.780Z,0.00
2023-03-16T19:58:24.770Z,0.00
2023-03-16T19:59:24.743Z,0.00
2023-03-16T20:00:24.731Z,0.00
2023-03-16T20:01:24.763Z,0.00
2023-03-16T20:02:24.741Z,0.00
2023-03-16T20:03:24.708Z,0.00
2023-03-16T20:04:24.779Z,0.00
2023-03-16T20:05:24.703Z,0.00
2023-03-16T20:06:24.691Z,0.00
2023-03-16T20:07:24.672Z,0.00
2023-03-16T20:08:24.709Z,0.00
2023-03-16T20:09:24.651Z,0.00
2023-03-16T20:10:24.724Z,0.00
2023-03-16T20:11:24.623Z,0.00
2023-03-16T20:12:24.612Z,0.00
2023-03-16T20:13:24.612Z,0.00
2023-03-16T20:14:24.577Z,0.00
2023-03-16T20:15:24.583Z,0.00
2023-03-16T20:16:24.570Z,0.00
2023-03-16T20:17:24.558Z,0.00
2023-03-16T20:18:24.559Z,0.00
2023-03-16T20:19:24.542Z,0.00
2023-03-16T20:20:24.507Z,0.00
2023-03-16T20:21:24.498Z,0.00
2023-03-16T20:22:24.484Z,0.00
2023-03-16T20:23:24.506Z,0.00
2023-03-16T20:24:24.518Z,0.00
2023-03-16T20:25:24.513Z,0.00
2023-03-16T20:26:24.462Z,0.00
2023-03-16T20:27:24.435Z,0.00
2023-03-16T20:28:24.419Z,0.00
2023-03-16T20:29:24.413Z,0.00
2023-03-16T20:30:24.396Z,0.00
2023-03-16T20:31:24.425Z,0.00
2023-03-16T20:32:24.619Z,0.00
2023-03-16T20:33:24.400Z,0.00
2023-03-16T20:34:24.354Z,0.00
2023-03-16T20:35:24.341Z,0.00
2023-03-16T20:36:24.380Z,0.00
2023-03-16T20:37:24.360Z,0.00
2023-03-16T20:38:25.325Z,0.00
2023-03-16T20:39:24.303Z,0.00
2023-03-16T20:40:24.323Z,0.00
2023-03-16T20:41:24.294Z,0.00
2023-03-16T20:42:24.282Z,0.00
2023-03-16T20:43:24.289Z,0.00
2023-03-16T20:44:24.243Z,0.00
2023-03-16T20:45:24.235Z,0.00
2023-03-16T20:46:24.272Z,0.00
2023-03-16T20:47:24.233Z,0.00
2023-03-16T20:48:24.201Z,0.00
2023-03-16T20:49:24.211Z,0.00
2023-03-16T20:50:24.185Z,0.00
2023-03-16T20:51:24.228Z,0.00
2023-03-16T20:52:24.155Z,0.00
2023-03-16T20:53:24.155Z,0.00
2023-03-16T20:54:24.138Z,0.00
2023-03-16T20:55:24.139Z,0.00
2023-03-16T20:56:24.145Z,0.00
2023-03-16T20:57:24.097Z,0.00
2023-03-16T20:58:24.085Z,0.00
2023-03-16T20:59:24.074Z,0.00
2023-03-16T21:00:24.062Z,0.00
2023-03-16T21:01:24.116Z,0.00
2023-03-16T21:02:24.064Z,0.00
2023-03-16T21:03:24.038Z,0.00
2023-03-16T21:04:24.026Z,0.00
2023-03-16T21:05:24.013Z,0.00
2023-03-16T21:06:23.997Z,0.00
2023-03-16T21:07:24.049Z,0.00
2023-03-16T21:08:24.030Z,0.00
2023-03-16T21:09:24.012Z,0.00
2023-03-16T21:10:24.039Z,0.00
2023-03-16T21:11:23.949Z,0.00
2023-03-16T21:12:23.990Z,0.00
2023-03-16T21:13:23.933Z,0.00
2023-03-16T21:14:23.922Z,0.00
2023-03-16T21:15:23.902Z,0.00
2023-03-16T21:16:23.977Z,0.00
2023-03-16T21:17:26.382Z,0.00
2023-03-16T21:18:23.862Z,0.00
2023-03-16T21:19:23.860Z,0.00
2023-03-16T21:20:23.858Z,0.00
2023-03-16T21:21:23.846Z,0.00
2023-03-16T21:22:23.824Z,0.00
2023-03-16T21:23:23.856Z,0.00
2023-03-16T21:24:24.781Z,0.00
2023-03-16T21:25:23.809Z,0.00
2023-03-16T21:26:23.885Z,0.00
2023-03-16T21:27:25.688Z,0.00
2023-03-16T21:28:23.823Z,0.00
2023-03-16T21:29:24.704Z,0.00
2023-03-16T21:30:23.817Z,0.00
2023-03-16T21:31:23.810Z,0.00
2023-03-16T21:32:24.859Z,0.00
2023-03-16T21:33:24.772Z,0.00
2023-03-16T21:34:23.716Z,0.00
2023-03-16T21:35:24.751Z,0.00
2023-03-16T21:36:23.684Z,0.00
2023-03-16T21:37:23.665Z,0.00
2023-03-16T21:38:24.187Z,0.00
2023-03-16T21:39:23.823Z,0.00
2023-03-16T21:40:24.686Z,0.00
2023-03-16T21:41:23.681Z,0.00
2023-03-16T21:42:23.620Z,0.00
2023-03-16T21:43:24.245Z,0.00
2023-03-16T21:44:24.185Z,0.00
2023-03-16T21:45:23.573Z,0.00
2023-03-16T21:46:23.686Z,0.00
2023-03-16T21:47:23.552Z,0.00
2023-03-16T21:48:23.536Z,0.00
2023-03-16T21:49:23.563Z,0.00
2023-03-16T21:50:23.519Z,0.00
2023-03-16T21:51:23.552Z,0.00
2023-03-16T21:52:23.509Z,0.00
2023-03-16T21:53:23.499Z,0.00
2023-03-16T21:54:23.496Z,0.00
2023-03-16T21:55:24.074Z,0.00
2023-03-16T21:56:23.466Z,0.00
2023-03-16T21:57:23.469Z,0.00
2023-03-16T21:58:23.426Z,0.00
2023-03-16T21:59:23.915Z,0.00
2023-03-16T22:00:23.416Z,0.00
2023-03-16T22:01:23.549Z,0.00
2023-03-16T22:02:23.555Z,0.00
2023-03-16T22:03:23.493Z,0.00
2023-03-16T22:04:23.361Z,0.00
2023-03-16T22:05:23.352Z,0.00
2023-03-16T22:06:23.339Z,0.00
2023-03-16T22:07:23.345Z,0.00
2023-03-16T22:08:23.316Z,0.00
2023-03-16T22:09:24.231Z,0.00
2023-03-16T22:10:23.311Z,0.00
2023-03-16T22:11:23.300Z,0.00
2023-03-16T22:12:23.273Z,0.00
2023-03-16T22:13:23.259Z,0.00
2023-03-16T22:14:23.269Z,0.00
2023-03-16T22:15:23.267Z,0.00
2023-03-16T22:16:23.363Z,0.00
2023-03-16T22:17:23.249Z,0.00
2023-03-16T22:18:23.203Z,0.00
2023-03-16T22:19:23.195Z,0.00
2023-03-16T22:20:23.253Z,0.00
2023-03-16T22:21:23.216Z,0.00
2023-03-16T22:22:23.198Z,0.00
2023-03-16T22:23:23.168Z,0.00
2023-03-16T22:24:23.143Z,0.00
2023-03-16T22:25:23.129Z,0.00
2023-03-16T22:26:23.127Z,0.00
2023-03-16T22:27:23.142Z,0.00
2023-03-16T22:28:23.124Z,0.00
2023-03-16T22:29:23.083Z,0.00
2023-03-16T22:30:23.075Z,0.00
2023-03-16T22:31:23.060Z,0.00
2023-03-16T22:32:23.098Z,0.00
2023-03-16T22:33:23.046Z,0.00
2023-03-16T22:34:23.052Z,0.00
2023-03-16T22:35:23.022Z,0.00
2023-03-16T22:36:23.014Z,0.00
2023-03-16T22:37:23.194Z,0.00
2023-03-16T22:38:22.997Z,0.00
2023-03-16T22:39:22.984Z,0.00
2023-03-16T22:40:22.996Z,0.00
2023-03-16T22:41:22.958Z,0.00
2023-03-16T22:42:22.943Z,0.00
2023-03-16T22:43:22.963Z,0.00
2023-03-16T22:44:23.105Z,0.00
2023-03-16T22:45:22.933Z,0.00
2023-03-16T22:46:23.071Z,0.00
2023-03-16T22:47:22.937Z,0.00
2023-03-16T22:48:22.932Z,0.00
2023-03-16T22:49:22.876Z,0.00
2023-03-16T22:50:22.859Z,0.00
2023-03-16T22:51:22.858Z,0.00
2023-03-16T22:52:22.847Z,0.00
2023-03-16T22:53:22.872Z,0.00
2023-03-16T22:54:22.822Z,0.00
2023-03-16T22:55:22.813Z,0.00
2023-03-16T22:56:22.797Z,0.00
2023-03-16T22:57:22.814Z,0.00
2023-03-16T22:58:22.778Z,0.00
2023-03-16T22:59:22.782Z,0.00
2023-03-16T23:00:22.787Z,0.00
2023-03-16T23:01:22.804Z,0.00
2023-03-16T23:02:22.727Z,0.00
2023-03-16T23:03:22.751Z,0.00
2023-03-16T23:04:22.853Z,0.00
2023-03-16T23:05:22.754Z,0.00
2023-03-16T23:06:22.694Z,0.00
2023-03-16T23:07:22.703Z,0.00
2023-03-16T23:08:22.668Z,0.00
2023-03-16T23:09:22.685Z,0.00
2023-03-16T23:10:22.668Z,0.00
2023-03-16T23:11:22.650Z,0.00
2023-03-16T23:12:22.638Z,0.00
2023-03-16T23:13:22.618Z,0.00
2023-03-16T23:14:22.626Z,0.00
2023-03-16T23:15:22.612Z,0.00
2023-03-16T23:16:22.598Z,0.00
2023-03-16T23:17:22.572Z,0.00
2023-03-16T23:18:22.577Z,0.00
2023-03-16T23:19:24.757Z,0.00
2023-03-16T23:20:22.615Z,0.00
2023-03-16T23:21:22.553Z,0.00
2023-03-16T23:22:22.517Z,0.00
2023-03-16T23:23:22.510Z,0.00
2023-03-16T23:24:22.532Z,0.00
2023-03-16T23:25:22.509Z,0.00
2023-03-16T23:26:22.500Z,0.00
2023-03-16T23:27:22.470Z,0.00
2023-03-16T23:28:22.465Z,0.00
2023-03-16T23:29:22.447Z,0.00
2023-03-16T23:30:22.434Z,0.00
2023-03-16T23:31:22.619Z,0.00
2023-03-16T23:32:22.422Z,0.00
2023-03-16T23:33:22.405Z,0.00
2023-03-16T23:34:22.413Z,0.00
2023-03-16T23:35:22.395Z,0.00
2023-03-16T23:36:22.394Z,0.00
2023-03-16T23:37:22.377Z,0.00
2023-03-16T23:38:22.363Z,0.00
2023-03-16T23:39:22.348Z,0.00
2023-03-16T23:40:22.323Z,0.00
2023-03-16T23:41:22.338Z,0.00
2023-03-16T23:42:22.345Z,0.00
2023-03-16T23:43:22.287Z,0.00
2023-03-16T23:44:22.307Z,0.00
2023-03-16T23:45:22.272Z,0.00
2023-03-16T23:46:22.297Z,0.00
2023-03-16T23:47:22.248Z,0.00
2023-03-16T23:48:22.310Z,0.00
2023-03-16T23:49:22.273Z,0.00
2023-03-16T23:50:22.238Z,0.00
2023-03-16T23:51:22.203Z,0.00
2023-03-16T23:52:22.238Z,0.00
2023-03-16T23:53:22.181Z,0.00
2023-03-16T23:54:22.232Z,0.00
2023-03-16T23:55:22.162Z,0.00
2023-03-16T23:56:22.152Z,0.00
2023-03-16T23:57:22.154Z,0.00
2023-03-16T23:58:22.136Z,0.00
2023-03-16T23:59:22.134Z,0.00
